Time;durP1;ratioP1;P1;durP2;ratioP2;P2;SDS_P1;SDS_P2;PMS_P1;PMS_P2;Temp;Humidity;BMP_temperature;BMP_pressure;BME280_temperature;BME280_humidity;BME280_pressure;Samples;Min_cycle;Max_cycle;Signal;HPM_P1;HPM_P2
2022/10/27 00:01:08;;;;;;;;;;;;;;;16.44;60.52;100836.19;4309302;33;20289;-86
2022/10/27 00:03:35;;;;;;;;;;;;;;;16.54;60.18;100834.50;4297747;33;20003;-86
2022/10/27 00:06:02;;;;;;;;;;;;;;;16.46;60.30;100833.56;4297532;33;20318;-87
2022/10/27 00:08:29;;;;;;;;;;;;;;;16.47;59.94;100836.22;4297756;33;19973;-85
2022/10/27 00:10:57;;;;;;;;;;;;;;;16.48;59.78;100837.06;4297478;33;19996;-85
2022/10/27 00:13:24;;;;;;;;;;;;;;;16.32;60.07;100835.22;4296238;33;20405;-83
2022/10/27 00:15:54;;;;;;;;;;;;;;;16.06;60.35;100835.84;4297346;33;19988;-85
2022/10/27 00:18:21;;;;;;;;;;;;;;;16.14;59.88;100842.00;4297338;33;19980;-83
2022/10/27 00:21:04;;;;;;;;;;;;;;;16.20;59.71;100841.19;4297097;33;20334;-82
2022/10/27 00:23:31;;;;;;;;;;;;;;;15.90;60.56;100841.78;4303136;33;20804;-82
2022/10/27 00:25:58;;;;;;;;;;;;;;;15.97;60.35;100848.81;4299759;33;20007;-86
2022/10/27 00:28:25;;;;;;;;;;;;;;;16.03;60.62;100843.66;4308674;33;19984;-86
2022/10/27 00:30:56;;;;;;;;;;;;;;;15.93;61.20;100847.03;4301469;33;20841;-85
2022/10/27 00:33:23;;;;;;;;;;;;;;;15.96;61.21;100841.84;4297856;33;19992;-86
2022/10/27 00:35:50;;;;;;;;;;;;;;;16.03;60.99;100843.66;4297594;33;20351;-85
2022/10/27 00:38:16;;;;;;;;;;;;;;;15.99;61.11;100836.66;4297236;33;19976;-86
2022/10/27 00:40:43;;;;;;;;;;;;;;;16.20;60.16;100842.06;4303495;33;19992;-86
2022/10/27 00:43:23;;;;;;;;;;;;;;;16.06;60.47;100848.91;4299509;33;20015;-86
2022/10/27 00:45:50;;;;;;;;;;;;;;;15.94;60.85;100854.00;4306705;33;20015;-86
2022/10/27 00:48:16;;;;;;;;;;;;;;;15.99;60.69;100852.31;4295986;33;19996;-87
2022/10/27 00:50:43;;;;;;;;;;;;;;;15.93;60.92;100855.72;4283949;33;20001;-85
2022/10/27 00:53:10;;;;;;;;;;;;;;;15.97;60.93;100859.25;4286324;33;21214;-86
2022/10/27 00:55:38;;;;;;;;;;;;;;;15.86;61.46;100860.84;4283021;33;20004;-86
2022/10/27 00:58:08;;;;;;;;;;;;;;;15.88;61.66;100864.37;4306906;33;20032;-86
2022/10/27 01:00:36;;;;;;;;;;;;;;;16.07;60.96;100865.44;4311896;33;19997;-84
2022/10/27 01:03:03;;;;;;;;;;;;;;;15.98;61.36;100866.22;4282991;33;19992;-86
2022/10/27 01:05:29;;;;;;;;;;;;;;;16.04;61.46;100866.28;4311973;33;20031;-86
2022/10/27 01:07:57;;;;;;;;;;;;;;;16.10;61.17;100860.25;4289632;33;20447;-84
2022/10/27 01:10:24;;;;;;;;;;;;;;;16.11;61.53;100868.09;4312902;33;20099;-86
2022/10/27 01:12:52;;;;;;;;;;;;;;;16.09;62.21;100875.06;4283159;33;20478;-86
2022/10/27 01:15:21;;;;;;;;;;;;;;;16.20;62.20;100872.53;4305109;33;20011;-85
2022/10/27 01:18:14;;;;;;;;;;;;;;;16.20;62.42;100876.00;4313577;33;20464;-86
2022/10/27 01:20:59;;;;;;;;;;;;;;;16.11;62.79;100873.31;4322683;33;19992;-82
2022/10/27 01:23:33;;;;;;;;;;;;;;;16.23;62.61;100868.22;4351893;32;20002;-85
2022/10/27 01:26:05;;;;;;;;;;;;;;;16.28;62.17;100882.19;4338493;33;20281;-86
2022/10/27 01:28:51;;;;;;;;;;;;;;;16.18;62.72;100885.59;4331387;33;20058;-84
2022/10/27 01:31:22;;;;;;;;;;;;;;;16.25;62.28;100882.19;4326313;33;20003;-83
2022/10/27 01:33:50;;;;;;;;;;;;;;;16.35;62.05;100880.53;4326626;33;19988;-84
2022/10/27 01:36:17;;;;;;;;;;;;;;;16.26;62.47;100883.91;4330750;33;19983;-81
2022/10/27 01:39:03;;;;;;;;;;;;;;;16.33;62.47;100879.62;4327845;33;20001;-80
2022/10/27 01:41:31;;;;;;;;;;;;;;;16.30;62.46;100884.81;4325723;33;19996;-82
2022/10/27 01:44:00;;;;;;;;;;;;;;;16.19;62.79;100882.13;4327149;33;20348;-86
2022/10/27 01:46:26;;;;;;;;;;;;;;;16.41;62.08;100877.09;4330611;33;20333;-86
2022/10/27 01:48:53;;;;;;;;;;;;;;;16.23;62.74;100878.66;4328601;33;20026;-86
2022/10/27 01:51:20;;;;;;;;;;;;;;;16.26;62.71;100883.91;4329106;33;20023;-82
2022/10/27 01:53:47;;;;;;;;;;;;;;;16.17;63.12;100894.28;4328154;33;20002;-82
2022/10/27 01:56:22;;;;;;;;;;;;;;;16.33;62.36;100879.62;4333255;33;19990;-81
2022/10/27 01:59:12;;;;;;;;;;;;;;;16.36;62.30;100878.78;4335097;33;20317;-81
2022/10/27 02:01:42;;;;;;;;;;;;;;;16.40;62.15;100880.56;4320112;33;19983;-86
2022/10/27 02:04:21;;;;;;;;;;;;;;;16.40;62.23;100888.37;4334709;33;19979;-84
2022/10/27 02:06:55;;;;;;;;;;;;;;;16.45;61.88;100884.09;4326093;33;20003;-83
2022/10/27 02:09:31;;;;;;;;;;;;;;;16.33;62.34;100889.19;4331039;33;19998;-87
2022/10/27 02:11:58;;;;;;;;;;;;;;;16.37;62.15;100876.19;4340657;33;19999;-84
2022/10/27 02:14:25;;;;;;;;;;;;;;;16.35;62.00;100887.50;4338309;33;19996;-83
2022/10/27 02:16:52;;;;;;;;;;;;;;;16.42;61.66;100894.50;4332289;33;20341;-84
2022/10/27 02:19:27;;;;;;;;;;;;;;;16.38;62.03;100887.53;4326834;33;20254;-81
2022/10/27 02:21:55;;;;;;;;;;;;;;;16.33;61.67;100894.44;4339890;33;20003;-83
2022/10/27 02:24:22;;;;;;;;;;;;;;;16.39;61.13;100884.03;4334394;33;20002;-83
2022/10/27 02:26:58;;;;;;;;;;;;;;;16.39;60.92;100884.03;4331083;33;20032;-79
2022/10/27 02:29:30;;;;;;;;;;;;;;;16.41;60.58;100882.31;4333960;33;19971;-86
2022/10/27 02:31:58;;;;;;;;;;;;;;;16.30;60.89;100892.66;4314421;33;19985;-86
2022/10/27 02:34:27;;;;;;;;;;;;;;;16.16;61.03;100892.53;4324093;33;20010;-86
2022/10/27 02:36:54;;;;;;;;;;;;;;;16.19;60.81;100897.78;4325991;33;20290;-85
2022/10/27 02:39:21;;;;;;;;;;;;;;;16.07;61.10;100892.44;4333988;33;19998;-86
2022/10/27 02:41:48;;;;;;;;;;;;;;;16.09;61.16;100890.72;4326013;33;19999;-86
2022/10/27 02:44:15;;;;;;;;;;;;;;;16.14;61.21;100888.16;4325586;33;20432;-86
2022/10/27 02:46:41;;;;;;;;;;;;;;;16.18;61.45;100897.78;4324957;33;19991;-86
2022/10/27 02:49:11;;;;;;;;;;;;;;;16.21;61.49;100898.69;4332968;33;19980;-85
2022/10/27 02:51:38;;;;;;;;;;;;;;;16.10;61.43;100902.91;4326881;33;19983;-79
2022/10/27 02:54:04;;;;;;;;;;;;;;;16.16;60.97;100897.75;4329610;33;19980;-79
2022/10/27 02:56:31;;;;;;;;;;;;;;;16.11;61.63;100904.66;4325393;33;20047;-85
2022/10/27 02:58:58;;;;;;;;;;;;;;;16.17;61.60;100903.84;4328419;33;20334;-84
2022/10/27 03:01:25;;;;;;;;;;;;;;;16.18;61.23;100898.66;4329976;33;20006;-85
2022/10/27 03:03:52;;;;;;;;;;;;;;;16.13;61.42;100892.50;4312698;33;20318;-81
2022/10/27 03:06:19;;;;;;;;;;;;;;;16.12;61.55;100890.75;4325371;33;20023;-87
2022/10/27 03:08:45;;;;;;;;;;;;;;;15.94;62.64;100886.19;4324201;33;19991;-84
2022/10/27 03:11:12;;;;;;;;;;;;;;;16.08;62.25;100891.59;4326576;33;19992;-86
2022/10/27 03:13:39;;;;;;;;;;;;;;;16.04;62.57;100895.00;4332370;33;20006;-86
2022/10/27 03:16:06;;;;;;;;;;;;;;;16.07;62.65;100902.88;4323983;33;19992;-86
2022/10/27 03:18:33;;;;;;;;;;;;;;;16.25;61.86;100900.47;4325948;33;20309;-85
2022/10/27 03:21:00;;;;;;;;;;;;;;;16.20;62.14;100907.38;4328564;33;20010;-85
2022/10/27 03:23:27;;;;;;;;;;;;;;;16.27;61.78;100911.81;4325298;33;20035;-82
2022/10/27 03:25:54;;;;;;;;;;;;;;;16.30;61.81;100917.91;4326645;33;20348;-85
2022/10/27 03:28:29;;;;;;;;;;;;;;;16.14;62.48;100912.53;4333321;33;20265;-84
2022/10/27 03:30:56;;;;;;;;;;;;;;;16.24;61.88;100909.16;4333712;33;19999;-85
2022/10/27 03:33:22;;;;;;;;;;;;;;;16.32;61.73;100918.81;4328993;33;20300;-88
2022/10/27 03:35:49;;;;;;;;;;;;;;;16.27;61.83;100911.81;4333345;33;20372;-85
2022/10/27 03:38:16;;;;;;;;;;;;;;;16.35;61.97;100924.94;4325540;33;19994;-87
2022/10/27 03:40:43;;;;;;;;;;;;;;;16.30;62.23;100915.31;4325377;33;20023;-85
2022/10/27 03:43:10;;;;;;;;;;;;;;;16.16;62.78;100913.44;4327070;33;20319;-84
2022/10/27 03:45:37;;;;;;;;;;;;;;;16.27;62.40;100919.66;4325619;33;19988;-81
2022/10/27 03:48:10;;;;;;;;;;;;;;;16.16;63.01;100921.25;4326628;33;19988;-84
2022/10/27 03:50:37;;;;;;;;;;;;;;;16.26;62.57;100925.72;4325855;33;20425;-82
2022/10/27 03:53:04;;;;;;;;;;;;;;;16.23;62.79;100920.47;4328920;33;19987;-83
2022/10/27 03:55:31;;;;;;;;;;;;;;;16.26;62.70;100924.84;4333003;33;19979;-86
2022/10/27 03:57:58;;;;;;;;;;;;;;;16.15;63.31;100921.25;4325883;33;19998;-84
2022/10/27 04:00:27;;;;;;;;;;;;;;;16.14;63.37;100928.19;4332086;33;20349;-84
2022/10/27 04:02:54;;;;;;;;;;;;;;;16.24;62.92;100922.25;4326755;33;19972;-84
2022/10/27 04:05:21;;;;;;;;;;;;;;;16.31;62.84;100924.91;4330796;33;20009;-84
2022/10/27 04:07:48;;;;;;;;;;;;;;;16.28;63.22;100933.59;4330864;33;19987;-86
2022/10/27 04:10:15;;;;;;;;;;;;;;;16.40;62.78;100917.12;4325757;33;19995;-86
2022/10/27 04:12:49;;;;;;;;;;;;;;;16.39;62.95;100924.09;4327628;33;20006;-80
2022/10/27 04:15:17;;;;;;;;;;;;;;;16.43;62.81;100919.78;4328949;33;20026;-86
2022/10/27 04:17:44;;;;;;;;;;;;;;;16.23;63.53;100930.03;4331211;33;19987;-86
2022/10/27 04:20:11;;;;;;;;;;;;;;;16.23;63.67;100930.91;4327123;33;20043;-83
2022/10/27 04:22:38;;;;;;;;;;;;;;;16.25;63.67;100933.56;4324953;33;20015;-87
2022/10/27 04:25:05;;;;;;;;;;;;;;;16.30;63.54;100941.44;4326696;33;19995;-84
2022/10/27 04:27:31;;;;;;;;;;;;;;;16.32;63.50;100940.59;4334028;33;20059;-81
2022/10/27 04:29:59;;;;;;;;;;;;;;;16.41;62.92;100939.81;4334283;33;20051;-86
2022/10/27 04:32:25;;;;;;;;;;;;;;;16.44;62.99;100940.72;4329169;33;19999;-84
2022/10/27 04:34:52;;;;;;;;;;;;;;;16.41;63.31;100945.03;4330942;33;20332;-80
2022/10/27 04:37:19;;;;;;;;;;;;;;;16.51;63.04;100952.09;4326392;33;19976;-85
2022/10/27 04:39:46;;;;;;;;;;;;;;;16.55;62.82;100948.66;4334624;33;20510;-85
2022/10/27 04:42:12;;;;;;;;;;;;;;;16.42;63.28;100952.00;4326168;33;19984;-83
2022/10/27 04:44:39;;;;;;;;;;;;;;;16.52;63.07;100953.84;4326414;33;19987;-86
2022/10/27 04:47:06;;;;;;;;;;;;;;;16.43;63.34;100957.28;4328165;33;20357;-82
2022/10/27 04:49:33;;;;;;;;;;;;;;;16.46;63.32;100964.25;4334763;33;19991;-86
2022/10/27 04:52:00;;;;;;;;;;;;;;;16.50;62.92;100966.03;4326290;33;19988;-78
2022/10/27 04:54:28;;;;;;;;;;;;;;;16.31;63.54;100964.09;4326608;33;20005;-78
2022/10/27 04:56:54;;;;;;;;;;;;;;;16.16;63.91;100950.00;4333074;33;19976;-77
2022/10/27 04:59:21;;;;;;;;;;;;;;;16.44;62.95;100965.97;4329178;33;19992;-87
2022/10/27 05:01:48;;;;;;;;;;;;;;;16.16;63.92;100965.66;4332747;33;20023;-84
2022/10/27 05:04:15;;;;;;;;;;;;;;;16.31;63.41;100966.72;4325749;33;19996;-78
2022/10/27 05:06:42;;;;;;;;;;;;;;;16.38;63.19;100976.37;4326235;33;19976;-86
2022/10/27 05:09:09;;;;;;;;;;;;;;;16.34;63.24;100969.37;4334324;33;20014;-83
2022/10/27 05:11:35;;;;;;;;;;;;;;;16.46;62.88;100974.69;4325598;33;20067;-81
2022/10/27 05:14:05;;;;;;;;;;;;;;;16.54;62.57;100980.88;4326075;33;19992;-84
2022/10/27 05:16:31;;;;;;;;;;;;;;;16.44;62.90;100979.06;4332306;33;20023;-87
2022/10/27 05:18:58;;;;;;;;;;;;;;;16.44;62.94;100976.44;4328596;33;19996;-79
2022/10/27 05:21:25;;;;;;;;;;;;;;;16.40;63.06;100985.09;4325783;33;19992;-85
2022/10/27 05:23:52;;;;;;;;;;;;;;;16.40;63.08;100980.75;4326565;33;20849;-85
2022/10/27 05:26:18;;;;;;;;;;;;;;;16.30;63.75;100980.63;4331769;33;19972;-87
2022/10/27 05:28:46;;;;;;;;;;;;;;;16.41;63.44;100986.84;4332437;33;20019;-77
2022/10/27 05:31:13;;;;;;;;;;;;;;;16.55;62.70;100985.25;4325073;33;19987;-80
2022/10/27 05:33:40;;;;;;;;;;;;;;;16.49;63.05;100990.41;4325902;33;20019;-87
2022/10/27 05:36:07;;;;;;;;;;;;;;;16.35;63.79;100987.66;4325768;33;19976;-79
2022/10/27 05:38:36;;;;;;;;;;;;;;;16.50;63.42;100997.41;4314979;32;20015;-83
2022/10/27 05:41:03;;;;;;;;;;;;;;;16.42;63.64;100999.06;4338611;32;19984;-77
2022/10/27 05:43:30;;;;;;;;;;;;;;;16.41;63.77;100995.56;4324391;33;20434;-77
2022/10/27 05:46:02;;;;;;;;;;;;;;;16.23;64.58;101001.44;4325885;33;20033;-85
2022/10/27 05:48:29;;;;;;;;;;;;;;;16.36;64.35;101004.22;4333817;33;20031;-79
2022/10/27 05:50:56;;;;;;;;;;;;;;;16.49;63.94;101004.34;4325982;33;19987;-79
2022/10/27 05:53:22;;;;;;;;;;;;;;;16.57;63.83;101012.28;4325510;33;19983;-81
2022/10/27 05:55:53;;;;;;;;;;;;;;;16.41;64.47;101016.47;4325909;33;20097;-86
2022/10/27 05:58:20;;;;;;;;;;;;;;;16.51;64.33;101020.06;4328494;33;19999;-88
2022/10/27 06:00:47;;;;;;;;;;;;;;;16.65;63.85;101012.34;4332203;33;20407;-81
2022/10/27 06:03:23;;;;;;;;;;;;;;;16.49;64.47;101008.72;4330238;33;19992;-78
2022/10/27 06:05:50;;;;;;;;;;;;;;;16.56;64.24;101014.88;4325487;33;20324;-80
2022/10/27 06:08:17;;;;;;;;;;;;;;;16.66;63.84;101021.97;4333898;33;19995;-78
2022/10/27 06:10:44;;;;;;;;;;;;;;;16.67;64.01;101021.97;4335111;33;20006;-83
2022/10/27 06:13:13;;;;;;;;;;;;;;;16.72;64.01;101025.53;4334777;33;19996;-84
2022/10/27 06:15:40;;;;;;;;;;;;;;;16.87;63.48;101034.41;4330139;33;19980;-81
2022/10/27 06:18:07;;;;;;;;;;;;;;;16.72;63.79;101041.22;4323444;33;20345;-82
2022/10/27 06:20:34;;;;;;;;;;;;;;;16.69;64.39;101038.56;4328042;33;20022;-83
2022/10/27 06:23:01;;;;;;;;;;;;;;;16.52;65.31;101035.75;4328280;33;20002;-85
2022/10/27 06:25:28;;;;;;;;;;;;;;;16.81;64.21;101039.56;4323703;33;19984;-84
2022/10/27 06:27:54;;;;;;;;;;;;;;;17.00;63.57;101040.63;4333534;33;19976;-84
2022/10/27 06:30:22;;;;;;;;;;;;;;;16.90;64.00;101047.50;4323971;33;19984;-83
2022/10/27 06:32:48;;;;;;;;;;;;;;;16.88;63.97;101043.97;3555525;32;10881497;-83
2022/10/27 06:35:15;;;;;;;;;;;;;;;17.02;63.54;101045.00;4331048;33;19988;-85
2022/10/27 06:37:43;;;;;;;;;;;;;;;17.09;63.40;101044.19;4333301;33;19983;-83
2022/10/27 06:40:10;;;;;;;;;;;;;;;17.02;63.88;101050.25;4325757;33;20362;-86
2022/10/27 06:42:37;;;;;;;;;;;;;;;17.03;63.82;101051.97;4325235;33;20318;-86
2022/10/27 06:45:24;;;;;;;;;;;;;;;17.06;63.69;101057.25;4325979;33;19987;-82
2022/10/27 06:47:54;;;;;;;;;;;;;;;17.09;63.65;101057.28;4325833;33;19992;-81
2022/10/27 06:50:22;;;;;;;;;;;;;;;17.10;63.77;101061.66;4324323;33;20006;-83
2022/10/27 06:52:50;;;;;;;;;;;;;;;17.02;63.98;101060.69;4325001;33;19983;-87
2022/10/27 06:55:17;;;;;;;;;;;;;;;16.55;66.19;101062.78;4328521;33;20022;-77
2022/10/27 06:57:44;;;;;;;;;;;;;;;16.72;65.46;101067.34;4328691;33;20002;-85
2022/10/27 07:00:11;;;;;;;;;;;;;;;16.99;64.62;101060.66;4329394;33;19972;-83
2022/10/27 07:02:38;;;;;;;;;;;;;;;16.90;65.23;101073.66;4339460;33;20318;-82
2022/10/27 07:05:05;;;;;;;;;;;;;;;17.09;64.64;101072.09;4339808;33;20014;-77
2022/10/27 07:07:33;;;;;;;;;;;;;;;17.24;64.11;101074.84;4334243;33;19991;-82
2022/10/27 07:10:00;;;;;;;;;;;;;;;17.26;63.58;101072.25;4340457;33;19989;-76
2022/10/27 07:12:27;;;;;;;;;;;;;;;17.22;63.80;101078.31;4333319;33;19991;-79
2022/10/27 07:14:53;;;;;;;;;;;;;;;17.23;63.58;101085.28;4328301;33;20011;-86
2022/10/27 07:17:20;;;;;;;;;;;;;;;17.44;62.80;101085.47;4340164;33;19995;-76
2022/10/27 07:19:52;;;;;;;;;;;;;;;17.27;63.42;101087.97;4341576;33;20018;-79
2022/10/27 07:22:19;;;;;;;;;;;;;;;17.58;62.49;101089.09;4340354;33;20321;-82
2022/10/27 07:24:45;;;;;;;;;;;;;;;17.49;62.98;101094.25;4336774;33;19987;-80
2022/10/27 07:27:12;;;;;;;;;;;;;;;17.53;63.12;101092.53;4335751;33;19991;-84
2022/10/27 07:29:39;;;;;;;;;;;;;;;17.32;63.59;101093.22;4335569;33;19998;-82
2022/10/27 07:32:06;;;;;;;;;;;;;;;17.42;63.12;101093.34;4326575;33;20011;-85
2022/10/27 07:34:32;;;;;;;;;;;;;;;17.47;62.96;101095.97;4334668;33;20351;-85
2022/10/27 07:36:59;;;;;;;;;;;;;;;17.29;63.53;101106.28;4326853;33;20349;-82
2022/10/27 07:39:26;;;;;;;;;;;;;;;17.50;62.66;101101.25;4328205;33;19984;-79
2022/10/27 07:41:53;;;;;;;;;;;;;;;17.48;63.01;101117.78;4331425;33;20363;-82
2022/10/27 07:44:19;;;;;;;;;;;;;;;17.60;62.44;101120.53;4326436;33;20363;-80
2022/10/27 07:46:46;;;;;;;;;;;;;;;17.35;63.40;101122.03;4329256;33;20126;-84
2022/10/27 07:49:13;;;;;;;;;;;;;;;17.55;62.68;101124.81;4329410;33;20404;-85
2022/10/27 07:51:40;;;;;;;;;;;;;;;17.42;62.94;101123.84;4326827;33;20566;-83
2022/10/27 07:54:07;;;;;;;;;;;;;;;17.45;62.93;101129.13;4334847;33;20018;-83
2022/10/27 07:56:36;;;;;;;;;;;;;;;17.36;63.27;101134.28;4325918;33;20408;-85
2022/10/27 07:59:03;;;;;;;;;;;;;;;17.31;63.53;101130.75;4335134;33;19980;-85
2022/10/27 08:01:30;;;;;;;;;;;;;;;17.43;63.26;101130.84;4326284;33;19992;-85
2022/10/27 08:03:57;;;;;;;;;;;;;;;17.63;62.76;101137.12;4332673;33;20324;-82
2022/10/27 08:06:24;;;;;;;;;;;;;;;17.73;62.50;101145.06;4329239;33;20087;-88
2022/10/27 08:08:50;;;;;;;;;;;;;;;17.76;62.92;101145.09;4326516;33;20020;-79
2022/10/27 08:11:17;;;;;;;;;;;;;;;17.48;64.14;101152.69;4321142;33;19991;-82
2022/10/27 08:13:44;;;;;;;;;;;;;;;17.16;64.72;101153.28;4325172;33;20046;-78
2022/10/27 08:16:11;;;;;;;;;;;;;;;17.36;64.16;101155.22;4332146;33;20349;-77
2022/10/27 08:18:38;;;;;;;;;;;;;;;17.73;63.12;101166.00;4330076;33;19984;-86
2022/10/27 08:21:05;;;;;;;;;;;;;;;17.50;63.82;101164.06;4329138;33;19988;-79
2022/10/27 08:23:32;;;;;;;;;;;;;;;17.58;63.96;101167.66;4333070;33;20043;-88
2022/10/27 08:25:58;;;;;;;;;;;;;;;17.72;63.54;101165.13;4328033;33;20396;-90
2022/10/27 08:28:25;;;;;;;;;;;;;;;17.69;63.46;101165.13;4335539;33;19998;-86
2022/10/27 08:30:52;;;;;;;;;;;;;;;17.79;63.24;101166.09;4324620;33;20280;-80
2022/10/27 08:33:20;;;;;;;;;;;;;;;17.90;62.87;101169.69;4332364;33;19998;-80
2022/10/27 08:35:47;;;;;;;;;;;;;;;17.93;62.72;101180.16;4327474;33;19984;-84
2022/10/27 08:38:15;;;;;;;;;;;;;;;17.73;63.39;101171.25;4326300;33;19983;-85
2022/10/27 08:40:44;;;;;;;;;;;;;;;17.92;62.73;101173.19;4325131;33;19984;-80
2022/10/27 08:43:29;;;;;;;;;;;;;;;17.90;62.97;101174.94;4325456;33;20002;-86
2022/10/27 08:46:20;;;;;;;;;;;;;;;17.75;63.68;101172.16;4326720;33;20088;-83
2022/10/27 08:48:47;;;;;;;;;;;;;;;17.71;63.60;101175.59;4320416;33;20447;-88
2022/10/27 08:51:14;;;;;;;;;;;;;;;18.04;62.60;101168.03;4333463;33;19999;-91
2022/10/27 08:53:41;;;;;;;;;;;;;;;18.12;62.35;101175.94;4325885;33;20737;-84
2022/10/27 08:56:08;;;;;;;;;;;;;;;17.90;62.92;101169.69;4325229;33;19976;-83
2022/10/27 08:58:37;;;;;;;;;;;;;;;18.07;62.40;101168.06;4325346;33;19980;-87
2022/10/27 09:01:08;;;;;;;;;;;;;;;18.11;61.79;101163.69;4327707;33;20007;-86
2022/10/27 09:03:58;;;;;;;;;;;;;;;18.36;60.96;101169.97;4331731;33;19998;-83
2022/10/27 09:06:27;;;;;;;;;;;;;;;18.08;61.53;101168.91;4318440;33;19983;-78
2022/10/27 09:08:54;;;;;;;;;;;;;;;18.15;61.60;101170.72;4332871;33;20002;-89
2022/10/27 09:11:27;;;;;;;;;;;;;;;18.01;61.93;101170.62;4326655;33;20031;-88
2022/10/27 09:14:12;;;;;;;;;;;;;;;17.88;62.18;101176.66;4331980;33;19994;-91
2022/10/27 09:16:45;;;;;;;;;;;;;;;17.90;62.56;101174.94;4326561;33;20003;-89
2022/10/27 09:19:14;;;;;;;;;;;;;;;18.08;61.92;101172.41;4324443;33;19980;-80
2022/10/27 09:21:41;;;;;;;;;;;;;;;18.16;61.71;101171.63;4332379;33;19996;-79
2022/10/27 09:24:11;;;;;;;;;;;;;;;18.01;62.60;101175.87;4324112;33;20318;-78
2022/10/27 09:26:38;;;;;;;;;;;;;;;18.09;62.55;101168.94;4328093;33;20361;-78
2022/10/27 09:29:17;;;;;;;;;;;;;;;18.23;62.21;101173.41;4330845;33;20010;-82
2022/10/27 09:31:56;;;;;;;;;;;;;;;18.29;61.36;101173.44;4334306;33;19996;-93
2022/10/27 09:34:24;;;;;;;;;;;;;;;18.26;61.58;101168.16;4337072;33;20131;-88
2022/10/27 09:36:51;;;;;;;;;;;;;;;18.39;61.38;101175.22;4331752;33;20392;-87
2022/10/27 09:39:19;;;;;;;;;;;;;;;18.46;61.13;101174.38;4325680;33;19980;-83
2022/10/27 09:41:46;;;;;;;;;;;;;;;18.46;61.10;101165.66;4327043;33;20329;-85
2022/10/27 09:44:18;;;;;;;;;;;;;;;18.49;60.95;101173.53;4328925;33;19998;-81
2022/10/27 09:46:47;;;;;;;;;;;;;;;18.52;60.69;101169.19;4339173;33;20054;-88
2022/10/27 09:49:15;;;;;;;;;;;;;;;18.61;60.54;101172.72;4341170;33;19984;-94
2022/10/27 09:51:49;;;;;;;;;;;;;;;18.55;60.86;101171.81;4332077;33;20011;-88
2022/10/27 09:54:32;;;;;;;;;;;;;;;18.71;60.28;101166.66;4334438;33;19991;-90
2022/10/27 09:57:22;;;;;;;;;;;;;;;18.20;61.66;101168.13;4336622;33;19998;-93
2022/10/27 09:59:49;;;;;;;;;;;;;;;18.54;60.76;101174.44;4339815;33;19979;-91
2022/10/27 10:02:24;;;;;;;;;;;;;;;18.62;60.77;101166.59;4339928;33;20333;-94
2022/10/27 10:04:51;;;;;;;;;;;;;;;18.68;60.43;101177.13;4329257;33;19998;-91
2022/10/27 10:07:33;;;;;;;;;;;;;;;18.72;60.02;101168.38;4340832;33;20002;-93
2022/10/27 10:10:23;;;;;;;;;;;;;;;18.83;60.16;101171.97;4339170;32;19998;-79
2022/10/27 10:13:01;;;;;;;;;;;;;;;18.61;60.73;101180.59;4332717;33;19976;-87
2022/10/27 10:15:28;;;;;;;;;;;;;;;18.66;60.52;101178.84;4332346;33;19987;-81
2022/10/27 10:17:56;;;;;;;;;;;;;;;18.70;60.51;101175.41;4333138;33;20002;-84
2022/10/27 10:20:33;;;;;;;;;;;;;;;18.74;60.43;101171.94;4324764;33;19976;-90
2022/10/27 10:23:09;;;;;;;;;;;;;;;18.79;60.44;101170.19;4324916;33;20007;-93
2022/10/27 10:25:40;;;;;;;;;;;;;;;18.81;60.46;101176.31;4325437;33;20454;-90
2022/10/27 10:28:12;;;;;;;;;;;;;;;18.78;59.93;101178.94;4330910;33;19987;-79
2022/10/27 10:30:39;;;;;;;;;;;;;;;18.70;59.97;101186.75;4338793;33;20318;-88
2022/10/27 10:33:06;;;;;;;;;;;;;;;18.56;60.90;101181.44;4336365;33;20039;-90
2022/10/27 10:35:46;;;;;;;;;;;;;;;18.71;60.49;101177.13;4318861;33;20006;-91
2022/10/27 10:38:19;;;;;;;;;;;;;;;18.83;60.06;101176.34;4322923;33;20046;-88
2022/10/27 10:40:54;;;;;;;;;;;;;;;18.81;60.13;101181.56;4325922;33;19983;-87
2022/10/27 10:43:21;;;;;;;;;;;;;;;18.98;59.65;101173.75;4325999;33;20030;-86
2022/10/27 10:45:51;;;;;;;;;;;;;;;19.11;59.09;101174.66;4324155;33;20027;-91
2022/10/27 10:48:34;;;;;;;;;;;;;;;19.19;59.06;101170.31;4326230;33;20032;-91
2022/10/27 10:51:01;;;;;;;;;;;;;;;18.52;61.00;101166.56;4333698;33;19976;-91
2022/10/27 10:53:37;;;;;;;;;;;;;;;18.95;59.70;101166.78;4340293;33;20035;-81
2022/10/27 10:56:24;;;;;;;;;;;;;;;19.09;59.61;101163.31;4340167;33;20356;-91
2022/10/27 10:59:14;;;;;;;;;;;;;;;19.10;59.49;101160.66;4339829;33;19988;-91
2022/10/27 11:01:46;;;;;;;;;;;;;;;19.26;58.83;101164.19;4332732;33;19976;-91
2022/10/27 11:04:14;;;;;;;;;;;;;;;19.32;58.78;101166.84;4323368;33;20000;-88
2022/10/27 11:06:58;;;;;;;;;;;;;;;19.34;58.81;101165.09;4330527;33;19988;-79
2022/10/27 11:09:26;;;;;;;;;;;;;;;19.35;58.34;101165.97;4332384;32;19995;-89
2022/10/27 11:11:53;;;;;;;;;;;;;;;19.26;58.77;101166.81;4323971;33;19984;-87
2022/10/27 11:14:20;;;;;;;;;;;;;;;19.12;59.73;101165.94;4326059;33;19988;-92
2022/10/27 11:16:50;;;;;;;;;;;;;;;19.32;59.56;101166.84;4332102;33;19988;-88
2022/10/27 11:19:18;;;;;;;;;;;;;;;19.54;57.88;101161.63;4324085;33;20357;-83
2022/10/27 11:21:48;;;;;;;;;;;;;;;19.23;58.89;101161.56;4332423;33;19975;-87
2022/10/27 11:24:19;;;;;;;;;;;;;;;19.33;59.05;101162.47;4301518;33;787465;-83
2022/10/27 11:26:48;;;;;;;;;;;;;;;19.31;59.04;101165.09;4326762;33;20031;-84
2022/10/27 11:29:17;;;;;;;;;;;;;;;19.43;58.58;101157.25;4329305;33;19992;-92
2022/10/27 11:31:55;;;;;;;;;;;;;;;19.67;58.17;101158.13;4330176;33;19976;-83
2022/10/27 11:34:22;;;;;;;;;;;;;;;20.04;57.01;101160.72;4325445;33;19980;-85
2022/10/27 11:36:53;;;;;;;;;;;;;;;19.97;56.72;101158.13;4330884;33;20014;-84
2022/10/27 11:39:22;;;;;;;;;;;;;;;19.86;57.13;101154.63;4326100;33;19988;-79
2022/10/27 11:42:00;;;;;;;;;;;;;;;19.82;57.29;101158.13;4323550;33;20405;-87
2022/10/27 11:44:33;;;;;;;;;;;;;;;19.80;57.22;101149.37;4321556;33;20011;-82
2022/10/27 11:47:03;;;;;;;;;;;;;;;19.82;57.50;101145.00;4329996;33;19987;-85
2022/10/27 11:49:32;;;;;;;;;;;;;;;19.61;58.97;101148.47;4339422;33;20633;-81
2022/10/27 11:52:16;;;;;;;;;;;;;;;19.17;60.81;101140.56;4336955;33;19979;-79
2022/10/27 11:54:44;;;;;;;;;;;;;;;19.28;60.11;101136.22;4333573;33;19995;-87
2022/10/27 11:57:31;;;;;;;;;;;;;;;19.38;58.95;101135.34;4333865;33;19991;-86
2022/10/27 12:00:16;;;;;;;;;;;;;;;19.37;59.29;101137.94;4329862;33;20001;-81
2022/10/27 12:02:56;;;;;;;;;;;;;;;20.04;57.55;101137.06;4314822;33;20330;-81
2022/10/27 12:05:41;;;;;;;;;;;;;;;19.73;59.77;101131.87;4338615;33;20578;-78
2022/10/27 12:08:45;;;;;;;;;;;;;;;20.37;56.82;101136.13;4317498;33;20006;-78
2022/10/27 12:11:18;;;;;;;;;;;;;;;20.41;56.87;101133.47;4322828;33;20011;-90
2022/10/27 12:13:45;;;;;;;;;;;;;;;20.27;57.50;101124.75;4310191;33;19984;-85
2022/10/27 12:16:15;;;;;;;;;;;;;;;20.52;56.73;101119.44;4326021;33;20349;-83
2022/10/27 12:18:42;;;;;;;;;;;;;;;20.76;55.82;101121.94;4312631;33;19979;-81
2022/10/27 12:21:13;;;;;;;;;;;;;;;20.67;55.01;101124.63;4322474;33;19988;-86
2022/10/27 12:23:42;;;;;;;;;;;;;;;20.90;55.34;101116.62;4311106;33;19980;-85
2022/10/27 12:26:10;;;;;;;;;;;;;;;20.68;55.71;101121.13;4322124;33;20028;-84
2022/10/27 12:28:37;;;;;;;;;;;;;;;20.70;54.76;101114.06;4322828;33;19984;-83
2022/10/27 12:31:07;;;;;;;;;;;;;;;20.93;54.48;101105.16;4312758;33;20000;-81
2022/10/27 12:33:39;;;;;;;;;;;;;;;21.12;53.84;101112.06;4310549;33;20356;-80
2022/10/27 12:36:29;;;;;;;;;;;;;;;21.15;53.67;101106.78;4311037;33;20314;-85
2022/10/27 12:39:04;;;;;;;;;;;;;;;21.25;52.97;101103.22;4313078;33;20010;-85
2022/10/27 12:41:33;;;;;;;;;;;;;;;20.77;54.58;101109.66;4308211;33;20001;-88
2022/10/27 12:44:13;;;;;;;;;;;;;;;20.73;54.85;101106.16;4310908;33;20333;-84
2022/10/27 12:46:59;;;;;;;;;;;;;;;21.17;53.77;101106.78;4315546;33;20348;-88
2022/10/27 12:49:32;;;;;;;;;;;;;;;21.11;53.46;101105.06;4333396;33;19984;-89